sensor_id;sensor_type;location;lat;lon;timestamp;temperature;humidity
16867;DHT22;8550;52.596;13.320;2024-02-21T00:02:59;8.60;99.90
16867;DHT22;8550;52.596;13.320;2024-02-21T00:08:02;8.70;99.90
16867;DHT22;8550;52.596;13.320;2024-02-21T00:13:06;8.70;99.90
16867;DHT22;8550;52.596;13.320;2024-02-21T00:18:08;8.70;99.90
16867;DHT22;8550;52.596;13.320;2024-02-21T00:23:11;8.70;99.90
16867;DHT22;8550;52.596;13.320;2024-02-21T00:28:15;8.70;99.90
16867;DHT22;8550;52.596;13.320;2024-02-21T00:33:17;8.80;99.90
16867;DHT22;8550;52.596;13.320;2024-02-21T00:38:18;8.70;99.90
16867;DHT22;8550;52.596;13.320;2024-02-21T00:43:22;8.70;99.90
16867;DHT22;8550;52.596;13.320;2024-02-21T00:48:24;8.70;99.90
16867;DHT22;8550;52.596;13.320;2024-02-21T00:53:26;8.70;99.90
16867;DHT22;8550;52.596;13.320;2024-02-21T00:58:30;8.70;99.90
16867;DHT22;8550;52.596;13.320;2024-02-21T01:03:31;8.70;99.90
16867;DHT22;8550;52.596;13.320;2024-02-21T01:08:33;8.60;99.90
16867;DHT22;8550;52.596;13.320;2024-02-21T01:13:39;8.60;99.90
16867;DHT22;8550;52.596;13.320;2024-02-21T01:18:41;8.70;99.90
16867;DHT22;8550;52.596;13.320;2024-02-21T01:23:43;8.70;99.90
16867;DHT22;8550;52.596;13.320;2024-02-21T01:28:46;8.70;99.90
16867;DHT22;8550;52.596;13.320;2024-02-21T01:33:48;8.80;99.90
16867;DHT22;8550;52.596;13.320;2024-02-21T01:38:50;8.80;99.90
16867;DHT22;8550;52.596;13.320;2024-02-21T01:43:54;8.80;99.90
16867;DHT22;8550;52.596;13.320;2024-02-21T01:48:56;8.80;99.90
16867;DHT22;8550;52.596;13.320;2024-02-21T01:53:58;8.90;99.90
16867;DHT22;8550;52.596;13.320;2024-02-21T01:59:02;8.80;99.90
16867;DHT22;8550;52.596;13.320;2024-02-21T02:04:04;8.80;99.90
16867;DHT22;8550;52.596;13.320;2024-02-21T02:09:06;8.80;99.90
16867;DHT22;8550;52.596;13.320;2024-02-21T02:14:09;8.80;99.90
16867;DHT22;8550;52.596;13.320;2024-02-21T02:19:11;8.70;99.90
16867;DHT22;8550;52.596;13.320;2024-02-21T02:24:16;8.60;99.90
16867;DHT22;8550;52.596;13.320;2024-02-21T02:29:18;8.40;99.90
16867;DHT22;8550;52.596;13.320;2024-02-21T02:34:19;8.30;99.90
16867;DHT22;8550;52.596;13.320;2024-02-21T02:39:23;8.20;99.90
16867;DHT22;8550;52.596;13.320;2024-02-21T02:44:25;8.10;99.90
16867;DHT22;8550;52.596;13.320;2024-02-21T02:49:27;8.10;99.90
16867;DHT22;8550;52.596;13.320;2024-02-21T02:54:30;8.10;99.90
16867;DHT22;8550;52.596;13.320;2024-02-21T02:59:32;8.00;99.90
16867;DHT22;8550;52.596;13.320;2024-02-21T03:04:34;7.90;99.90
16867;DHT22;8550;52.596;13.320;2024-02-21T03:09:37;7.90;99.90
16867;DHT22;8550;52.596;13.320;2024-02-21T03:14:39;7.90;99.90
16867;DHT22;8550;52.596;13.320;2024-02-21T03:19:41;7.80;99.90
16867;DHT22;8550;52.596;13.320;2024-02-21T03:24:44;7.80;99.90
16867;DHT22;8550;52.596;13.320;2024-02-21T03:29:46;7.90;99.90
16867;DHT22;8550;52.596;13.320;2024-02-21T03:34:48;7.90;99.90
16867;DHT22;8550;52.596;13.320;2024-02-21T03:39:51;7.80;99.90
16867;DHT22;8550;52.596;13.320;2024-02-21T03:44:54;7.80;99.90
16867;DHT22;8550;52.596;13.320;2024-02-21T03:49:56;7.80;99.90
16867;DHT22;8550;52.596;13.320;2024-02-21T03:55:00;7.80;99.90
16867;DHT22;8550;52.596;13.320;2024-02-21T04:00:02;7.80;99.90
16867;DHT22;8550;52.596;13.320;2024-02-21T04:05:05;7.80;99.90
16867;DHT22;8550;52.596;13.320;2024-02-21T04:10:12;7.80;99.90
16867;DHT22;8550;52.596;13.320;2024-02-21T04:15:14;7.80;99.90
16867;DHT22;8550;52.596;13.320;2024-02-21T04:20:16;7.80;99.90
16867;DHT22;8550;52.596;13.320;2024-02-21T04:25:20;7.80;99.90
16867;DHT22;8550;52.596;13.320;2024-02-21T04:30:22;7.80;99.90
16867;DHT22;8550;52.596;13.320;2024-02-21T04:35:24;7.80;99.90
16867;DHT22;8550;52.596;13.320;2024-02-21T04:40:27;7.80;99.90
16867;DHT22;8550;52.596;13.320;2024-02-21T04:45:29;7.80;99.90
16867;DHT22;8550;52.596;13.320;2024-02-21T04:50:31;7.80;99.90
16867;DHT22;8550;52.596;13.320;2024-02-21T04:55:34;7.80;99.90
16867;DHT22;8550;52.596;13.320;2024-02-21T05:00:36;7.80;99.90
16867;DHT22;8550;52.596;13.320;2024-02-21T05:05:38;7.90;99.90
16867;DHT22;8550;52.596;13.320;2024-02-21T05:10:41;7.90;99.90
16867;DHT22;8550;52.596;13.320;2024-02-21T05:15:43;7.90;99.90
16867;DHT22;8550;52.596;13.320;2024-02-21T05:20:45;7.90;99.90
16867;DHT22;8550;52.596;13.320;2024-02-21T05:25:48;7.90;99.90
16867;DHT22;8550;52.596;13.320;2024-02-21T05:30:50;7.90;99.90
16867;DHT22;8550;52.596;13.320;2024-02-21T05:35:52;7.90;99.90
16867;DHT22;8550;52.596;13.320;2024-02-21T05:40:55;7.90;99.90
16867;DHT22;8550;52.596;13.320;2024-02-21T05:45:58;7.90;99.90
16867;DHT22;8550;52.596;13.320;2024-02-21T05:51:01;7.90;99.90
16867;DHT22;8550;52.596;13.320;2024-02-21T05:56:10;7.90;99.90
16867;DHT22;8550;52.596;13.320;2024-02-21T06:01:12;7.90;99.90
16867;DHT22;8550;52.596;13.320;2024-02-21T06:06:14;7.90;99.90
16867;DHT22;8550;52.596;13.320;2024-02-21T06:11:17;8.00;99.90
16867;DHT22;8550;52.596;13.320;2024-02-21T06:16:19;7.90;99.90
16867;DHT22;8550;52.596;13.320;2024-02-21T06:21:21;8.00;99.90
16867;DHT22;8550;52.596;13.320;2024-02-21T06:26:24;8.00;99.90
16867;DHT22;8550;52.596;13.320;2024-02-21T06:31:27;8.00;99.90
16867;DHT22;8550;52.596;13.320;2024-02-21T06:36:29;8.00;99.90
16867;DHT22;8550;52.596;13.320;2024-02-21T06:41:32;8.10;99.90
16867;DHT22;8550;52.596;13.320;2024-02-21T06:46:35;8.10;99.90
16867;DHT22;8550;52.596;13.320;2024-02-21T06:51:37;8.20;99.90
16867;DHT22;8550;52.596;13.320;2024-02-21T06:56:40;8.10;99.90
16867;DHT22;8550;52.596;13.320;2024-02-21T07:01:45;8.20;99.90
16867;DHT22;8550;52.596;13.320;2024-02-21T07:06:47;8.20;99.90
16867;DHT22;8550;52.596;13.320;2024-02-21T07:11:50;8.30;99.90
16867;DHT22;8550;52.596;13.320;2024-02-21T07:16:52;8.30;99.90
16867;DHT22;8550;52.596;13.320;2024-02-21T07:21:54;8.40;99.90
16867;DHT22;8550;52.596;13.320;2024-02-21T07:26:58;8.40;99.90
16867;DHT22;8550;52.596;13.320;2024-02-21T07:32:05;8.50;99.90
16867;DHT22;8550;52.596;13.320;2024-02-21T07:37:07;8.60;99.90
16867;DHT22;8550;52.596;13.320;2024-02-21T07:42:10;8.60;99.90
16867;DHT22;8550;52.596;13.320;2024-02-21T07:47:12;8.60;99.90
16867;DHT22;8550;52.596;13.320;2024-02-21T07:52:14;8.60;99.90
16867;DHT22;8550;52.596;13.320;2024-02-21T07:57:17;8.70;99.90
16867;DHT22;8550;52.596;13.320;2024-02-21T08:02:19;8.70;99.90
16867;DHT22;8550;52.596;13.320;2024-02-21T08:07:21;8.70;99.90
16867;DHT22;8550;52.596;13.320;2024-02-21T08:12:24;8.80;99.90
16867;DHT22;8550;52.596;13.320;2024-02-21T08:17:26;8.80;99.90
16867;DHT22;8550;52.596;13.320;2024-02-21T08:22:28;8.80;99.90
16867;DHT22;8550;52.596;13.320;2024-02-21T08:27:31;8.80;99.90
16867;DHT22;8550;52.596;13.320;2024-02-21T08:32:35;8.90;99.90
16867;DHT22;8550;52.596;13.320;2024-02-21T08:37:37;8.90;99.90
16867;DHT22;8550;52.596;13.320;2024-02-21T08:42:40;9.00;99.90
16867;DHT22;8550;52.596;13.320;2024-02-21T08:47:42;9.30;99.90
16867;DHT22;8550;52.596;13.320;2024-02-21T08:52:44;9.40;99.90
16867;DHT22;8550;52.596;13.320;2024-02-21T08:57:48;9.40;99.90
16867;DHT22;8550;52.596;13.320;2024-02-21T09:02:50;9.50;99.90
16867;DHT22;8550;52.596;13.320;2024-02-21T09:07:52;9.50;99.90
16867;DHT22;8550;52.596;13.320;2024-02-21T09:12:55;9.50;99.90
16867;DHT22;8550;52.596;13.320;2024-02-21T09:17:57;9.60;99.90
16867;DHT22;8550;52.596;13.320;2024-02-21T09:22:59;9.80;99.90
16867;DHT22;8550;52.596;13.320;2024-02-21T09:28:03;9.80;99.90
16867;DHT22;8550;52.596;13.320;2024-02-21T09:33:06;9.90;99.90
16867;DHT22;8550;52.596;13.320;2024-02-21T09:38:08;10.00;99.90
16867;DHT22;8550;52.596;13.320;2024-02-21T09:43:12;10.10;99.90
16867;DHT22;8550;52.596;13.320;2024-02-21T09:48:29;10.10;99.90
16867;DHT22;8550;52.596;13.320;2024-02-21T09:53:32;10.10;99.90
16867;DHT22;8550;52.596;13.320;2024-02-21T09:58:38;10.10;99.90
16867;DHT22;8550;52.596;13.320;2024-02-21T10:03:41;10.10;99.90
16867;DHT22;8550;52.596;13.320;2024-02-21T10:08:51;10.20;99.90
16867;DHT22;8550;52.596;13.320;2024-02-21T10:14:04;10.40;99.90
16867;DHT22;8550;52.596;13.320;2024-02-21T10:19:06;10.50;99.90
16867;DHT22;8550;52.596;13.320;2024-02-21T10:24:08;10.50;99.90
16867;DHT22;8550;52.596;13.320;2024-02-21T10:29:12;10.70;99.90
16867;DHT22;8550;52.596;13.320;2024-02-21T10:34:16;11.00;99.90
16867;DHT22;8550;52.596;13.320;2024-02-21T10:39:19;11.10;99.90
16867;DHT22;8550;52.596;13.320;2024-02-21T10:44:23;10.80;99.90
16867;DHT22;8550;52.596;13.320;2024-02-21T10:49:27;10.70;99.90
16867;DHT22;8550;52.596;13.320;2024-02-21T10:54:41;10.50;99.90
16867;DHT22;8550;52.596;13.320;2024-02-21T10:59:48;10.40;99.90
16867;DHT22;8550;52.596;13.320;2024-02-21T11:04:51;10.30;99.90
16867;DHT22;8550;52.596;13.320;2024-02-21T11:09:54;10.30;99.90
16867;DHT22;8550;52.596;13.320;2024-02-21T11:15:05;10.40;99.90
16867;DHT22;8550;52.596;13.320;2024-02-21T11:20:11;10.80;99.90
16867;DHT22;8550;52.596;13.320;2024-02-21T11:25:21;10.90;99.90
16867;DHT22;8550;52.596;13.320;2024-02-21T11:30:29;11.10;99.90
16867;DHT22;8550;52.596;13.320;2024-02-21T11:35:33;11.00;99.90
16867;DHT22;8550;52.596;13.320;2024-02-21T11:40:38;11.50;99.90
16867;DHT22;8550;52.596;13.320;2024-02-21T11:45:42;11.90;99.90
16867;DHT22;8550;52.596;13.320;2024-02-21T11:50:53;12.40;99.90
16867;DHT22;8550;52.596;13.320;2024-02-21T11:55:55;13.70;99.90
16867;DHT22;8550;52.596;13.320;2024-02-21T12:00:58;13.00;99.90
16867;DHT22;8550;52.596;13.320;2024-02-21T12:06:03;12.40;99.90
16867;DHT22;8550;52.596;13.320;2024-02-21T12:11:16;12.10;99.90
16867;DHT22;8550;52.596;13.320;2024-02-21T12:16:21;12.30;99.90
16867;DHT22;8550;52.596;13.320;2024-02-21T12:21:26;12.60;99.90
16867;DHT22;8550;52.596;13.320;2024-02-21T12:26:29;12.80;99.90
16867;DHT22;8550;52.596;13.320;2024-02-21T12:31:32;12.90;99.90
16867;DHT22;8550;52.596;13.320;2024-02-21T12:36:36;13.10;99.90
16867;DHT22;8550;52.596;13.320;2024-02-21T12:41:42;13.10;99.90
16867;DHT22;8550;52.596;13.320;2024-02-21T12:46:46;12.80;99.90
16867;DHT22;8550;52.596;13.320;2024-02-21T12:51:52;13.20;99.90
16867;DHT22;8550;52.596;13.320;2024-02-21T12:56:54;13.40;99.90
16867;DHT22;8550;52.596;13.320;2024-02-21T13:01:58;13.70;99.90
16867;DHT22;8550;52.596;13.320;2024-02-21T13:07:00;13.50;99.90
16867;DHT22;8550;52.596;13.320;2024-02-21T13:12:02;13.20;99.90
16867;DHT22;8550;52.596;13.320;2024-02-21T13:17:06;13.30;99.90
16867;DHT22;8550;52.596;13.320;2024-02-21T13:22:08;13.60;99.90
16867;DHT22;8550;52.596;13.320;2024-02-21T13:27:10;13.40;99.90
16867;DHT22;8550;52.596;13.320;2024-02-21T13:32:14;13.20;99.90
16867;DHT22;8550;52.596;13.320;2024-02-21T13:37:17;13.20;99.90
16867;DHT22;8550;52.596;13.320;2024-02-21T13:42:19;13.00;99.90
16867;DHT22;8550;52.596;13.320;2024-02-21T13:47:22;12.90;99.90
16867;DHT22;8550;52.596;13.320;2024-02-21T13:52:24;12.60;99.90
16867;DHT22;8550;52.596;13.320;2024-02-21T13:57:26;12.50;99.90
16867;DHT22;8550;52.596;13.320;2024-02-21T14:02:30;12.20;99.90
16867;DHT22;8550;52.596;13.320;2024-02-21T14:07:33;12.10;99.90
16867;DHT22;8550;52.596;13.320;2024-02-21T14:12:36;12.10;99.90
16867;DHT22;8550;52.596;13.320;2024-02-21T14:17:42;12.10;99.90
16867;DHT22;8550;52.596;13.320;2024-02-21T14:22:44;12.00;99.90
16867;DHT22;8550;52.596;13.320;2024-02-21T14:27:46;11.90;99.90
16867;DHT22;8550;52.596;13.320;2024-02-21T14:32:49;11.90;99.90
16867;DHT22;8550;52.596;13.320;2024-02-21T14:37:52;12.00;99.90
16867;DHT22;8550;52.596;13.320;2024-02-21T14:42:56;12.00;99.90
16867;DHT22;8550;52.596;13.320;2024-02-21T14:47:59;12.00;99.90
16867;DHT22;8550;52.596;13.320;2024-02-21T14:53:01;12.00;99.90
16867;DHT22;8550;52.596;13.320;2024-02-21T14:58:05;12.00;99.90
16867;DHT22;8550;52.596;13.320;2024-02-21T15:03:09;11.90;99.90
16867;DHT22;8550;52.596;13.320;2024-02-21T15:08:11;12.00;99.90
16867;DHT22;8550;52.596;13.320;2024-02-21T15:13:17;11.90;99.90
16867;DHT22;8550;52.596;13.320;2024-02-21T15:18:20;11.90;99.90
16867;DHT22;8550;52.596;13.320;2024-02-21T15:23:22;12.00;99.90
16867;DHT22;8550;52.596;13.320;2024-02-21T15:28:25;12.50;99.90
16867;DHT22;8550;52.596;13.320;2024-02-21T15:33:31;12.70;99.90
16867;DHT22;8550;52.596;13.320;2024-02-21T15:38:33;12.50;99.90
16867;DHT22;8550;52.596;13.320;2024-02-21T15:43:35;12.20;99.90
16867;DHT22;8550;52.596;13.320;2024-02-21T15:48:40;11.80;99.90
16867;DHT22;8550;52.596;13.320;2024-02-21T15:53:42;11.70;99.90
16867;DHT22;8550;52.596;13.320;2024-02-21T15:58:45;11.50;99.90
16867;DHT22;8550;52.596;13.320;2024-02-21T16:03:49;11.20;99.90
16867;DHT22;8550;52.596;13.320;2024-02-21T16:08:51;11.10;99.90
16867;DHT22;8550;52.596;13.320;2024-02-21T16:13:53;11.00;99.90
16867;DHT22;8550;52.596;13.320;2024-02-21T16:18:57;10.70;99.90
16867;DHT22;8550;52.596;13.320;2024-02-21T16:23:59;10.60;99.90
16867;DHT22;8550;52.596;13.320;2024-02-21T16:29:01;10.40;99.90
16867;DHT22;8550;52.596;13.320;2024-02-21T16:34:04;10.30;99.90
16867;DHT22;8550;52.596;13.320;2024-02-21T16:39:07;10.10;99.90
16867;DHT22;8550;52.596;13.320;2024-02-21T16:44:12;10.00;99.90
16867;DHT22;8550;52.596;13.320;2024-02-21T16:49:15;9.80;99.90
16867;DHT22;8550;52.596;13.320;2024-02-21T16:54:21;9.70;99.90
16867;DHT22;8550;52.596;13.320;2024-02-21T16:59:23;9.60;99.90
16867;DHT22;8550;52.596;13.320;2024-02-21T17:04:26;9.50;99.90
16867;DHT22;8550;52.596;13.320;2024-02-21T17:09:28;9.40;99.90
16867;DHT22;8550;52.596;13.320;2024-02-21T17:14:31;9.50;99.90
16867;DHT22;8550;52.596;13.320;2024-02-21T17:19:35;9.50;99.90
16867;DHT22;8550;52.596;13.320;2024-02-21T17:24:37;9.50;99.90
16867;DHT22;8550;52.596;13.320;2024-02-21T17:29:39;9.40;99.90
16867;DHT22;8550;52.596;13.320;2024-02-21T17:34:43;9.50;99.90
16867;DHT22;8550;52.596;13.320;2024-02-21T17:39:47;9.40;99.90
16867;DHT22;8550;52.596;13.320;2024-02-21T17:44:51;9.30;99.90
16867;DHT22;8550;52.596;13.320;2024-02-21T17:49:54;9.10;99.90
16867;DHT22;8550;52.596;13.320;2024-02-21T17:54:56;9.10;99.90
16867;DHT22;8550;52.596;13.320;2024-02-21T17:59:59;9.10;99.90
16867;DHT22;8550;52.596;13.320;2024-02-21T18:05:04;9.00;99.90
16867;DHT22;8550;52.596;13.320;2024-02-21T18:10:07;9.00;99.90
16867;DHT22;8550;52.596;13.320;2024-02-21T18:15:09;8.90;99.90
16867;DHT22;8550;52.596;13.320;2024-02-21T18:20:13;8.70;99.90
16867;DHT22;8550;52.596;13.320;2024-02-21T18:25:15;8.70;99.90
16867;DHT22;8550;52.596;13.320;2024-02-21T18:30:18;8.70;99.90
16867;DHT22;8550;52.596;13.320;2024-02-21T18:35:21;8.80;99.90
16867;DHT22;8550;52.596;13.320;2024-02-21T18:40:23;8.80;99.90
16867;DHT22;8550;52.596;13.320;2024-02-21T18:45:27;8.90;99.90
16867;DHT22;8550;52.596;13.320;2024-02-21T18:50:30;9.00;99.90
16867;DHT22;8550;52.596;13.320;2024-02-21T18:55:32;8.90;99.90
16867;DHT22;8550;52.596;13.320;2024-02-21T19:00:34;9.00;99.90
16867;DHT22;8550;52.596;13.320;2024-02-21T19:05:38;9.00;99.90
16867;DHT22;8550;52.596;13.320;2024-02-21T19:10:40;9.00;99.90
16867;DHT22;8550;52.596;13.320;2024-02-21T19:15:42;9.00;99.90
16867;DHT22;8550;52.596;13.320;2024-02-21T19:20:45;9.00;99.90
16867;DHT22;8550;52.596;13.320;2024-02-21T19:25:48;9.00;99.90
16867;DHT22;8550;52.596;13.320;2024-02-21T19:30:50;9.00;99.90
16867;DHT22;8550;52.596;13.320;2024-02-21T19:35:53;9.00;99.90
16867;DHT22;8550;52.596;13.320;2024-02-21T19:40:55;9.10;99.90
16867;DHT22;8550;52.596;13.320;2024-02-21T19:45:58;9.00;99.90
16867;DHT22;8550;52.596;13.320;2024-02-21T19:51:01;9.00;99.90
16867;DHT22;8550;52.596;13.320;2024-02-21T19:56:05;9.00;99.90
16867;DHT22;8550;52.596;13.320;2024-02-21T20:01:08;9.00;99.90
16867;DHT22;8550;52.596;13.320;2024-02-21T20:06:11;9.00;99.90
16867;DHT22;8550;52.596;13.320;2024-02-21T20:11:13;9.00;99.90
16867;DHT22;8550;52.596;13.320;2024-02-21T20:16:15;9.00;99.90
16867;DHT22;8550;52.596;13.320;2024-02-21T20:21:18;9.10;99.90
16867;DHT22;8550;52.596;13.320;2024-02-21T20:26:21;9.10;99.90
16867;DHT22;8550;52.596;13.320;2024-02-21T20:31:23;9.10;99.90
16867;DHT22;8550;52.596;13.320;2024-02-21T20:36:27;9.20;99.90
16867;DHT22;8550;52.596;13.320;2024-02-21T20:41:30;9.20;99.90
16867;DHT22;8550;52.596;13.320;2024-02-21T20:46:32;9.20;99.90
16867;DHT22;8550;52.596;13.320;2024-02-21T20:51:37;9.20;99.90
16867;DHT22;8550;52.596;13.320;2024-02-21T20:56:39;9.10;99.90
16867;DHT22;8550;52.596;13.320;2024-02-21T21:01:41;9.10;99.90
16867;DHT22;8550;52.596;13.320;2024-02-21T21:06:44;9.10;99.90
16867;DHT22;8550;52.596;13.320;2024-02-21T21:11:46;9.10;99.90
16867;DHT22;8550;52.596;13.320;2024-02-21T21:16:48;9.10;99.90
16867;DHT22;8550;52.596;13.320;2024-02-21T21:21:51;9.20;99.90
16867;DHT22;8550;52.596;13.320;2024-02-21T21:26:53;9.20;99.90
16867;DHT22;8550;52.596;13.320;2024-02-21T21:31:55;9.20;99.90
16867;DHT22;8550;52.596;13.320;2024-02-21T21:36:58;9.20;99.90
16867;DHT22;8550;52.596;13.320;2024-02-21T21:42:00;9.20;99.90
16867;DHT22;8550;52.596;13.320;2024-02-21T21:47:02;9.20;99.90
16867;DHT22;8550;52.596;13.320;2024-02-21T21:52:06;9.20;99.90
16867;DHT22;8550;52.596;13.320;2024-02-21T21:57:08;9.20;99.90
16867;DHT22;8550;52.596;13.320;2024-02-21T22:02:10;9.20;99.90
16867;DHT22;8550;52.596;13.320;2024-02-21T22:07:13;9.20;99.90
16867;DHT22;8550;52.596;13.320;2024-02-21T22:12:15;9.20;99.90
16867;DHT22;8550;52.596;13.320;2024-02-21T22:17:17;9.30;99.90
16867;DHT22;8550;52.596;13.320;2024-02-21T22:22:20;9.30;99.90
16867;DHT22;8550;52.596;13.320;2024-02-21T22:27:22;9.20;99.90
16867;DHT22;8550;52.596;13.320;2024-02-21T22:32:25;9.30;99.90
16867;DHT22;8550;52.596;13.320;2024-02-21T22:37:28;9.40;99.90
16867;DHT22;8550;52.596;13.320;2024-02-21T22:42:30;9.40;99.90
16867;DHT22;8550;52.596;13.320;2024-02-21T22:47:31;9.40;99.90
16867;DHT22;8550;52.596;13.320;2024-02-21T22:52:35;9.40;99.90
16867;DHT22;8550;52.596;13.320;2024-02-21T22:57:36;9.40;99.90
16867;DHT22;8550;52.596;13.320;2024-02-21T23:02:41;9.40;99.90
16867;DHT22;8550;52.596;13.320;2024-02-21T23:07:45;9.40;99.90
16867;DHT22;8550;52.596;13.320;2024-02-21T23:12:50;9.40;99.90
16867;DHT22;8550;52.596;13.320;2024-02-21T23:17:52;9.30;99.90
16867;DHT22;8550;52.596;13.320;2024-02-21T23:22:55;9.40;99.90
16867;DHT22;8550;52.596;13.320;2024-02-21T23:27:57;9.40;99.90
16867;DHT22;8550;52.596;13.320;2024-02-21T23:32:59;9.40;99.90
16867;DHT22;8550;52.596;13.320;2024-02-21T23:38:03;9.30;99.90
16867;DHT22;8550;52.596;13.320;2024-02-21T23:43:08;9.30;99.90
16867;DHT22;8550;52.596;13.320;2024-02-21T23:48:10;9.30;99.90
16867;DHT22;8550;52.596;13.320;2024-02-21T23:53:14;9.40;99.90
16867;DHT22;8550;52.596;13.320;2024-02-21T23:58:16;9.30;99.90
